Time;durP1;ratioP1;P1;durP2;ratioP2;P2;SDS_P1;SDS_P2;PMS_P1;PMS_P2;Temp;Humidity;BMP_temperature;BMP_pressure;BME280_temperature;BME280_humidity;BME280_pressure;Samples;Min_cycle;Max_cycle;Signal;HPM_P1;HPM_P2
2022/12/26 00:02:44;;;;;;;2.03;1.38;;;19.50;55.00;;;;;;6245633;28;20064;-76
2022/12/26 00:05:44;;;;;;;1.83;1.13;;;19.40;54.90;;;;;;6266657;28;20036;-75
2022/12/26 00:08:46;;;;;;;1.40;1.05;;;19.40;54.90;;;;;;6250895;28;20065;-76
2022/12/26 00:11:47;;;;;;;1.50;1.23;;;19.40;54.90;;;;;;6240563;28;20534;-75
2022/12/26 00:14:47;;;;;;;1.48;1.17;;;19.40;54.90;;;;;;6264584;28;20028;-76
2022/12/26 00:17:48;;;;;;;1.63;1.13;;;19.40;54.90;;;;;;6274149;28;20033;-76
2022/12/26 00:20:49;;;;;;;1.50;1.10;;;19.40;54.90;;;;;;6241690;28;20037;-75
2022/12/26 00:23:49;;;;;;;1.77;1.17;;;19.40;54.90;;;;;;6245517;28;20037;-76
2022/12/26 00:26:50;;;;;;;1.80;1.05;;;19.40;55.00;;;;;;6216968;28;20068;-76
2022/12/26 00:29:50;;;;;;;1.65;1.10;;;19.40;54.90;;;;;;6261292;28;20033;-76
2022/12/26 00:32:51;;;;;;;1.60;1.00;;;19.40;54.90;;;;;;6260943;28;20540;-75
2022/12/26 00:35:51;;;;;;;1.88;1.30;;;19.40;54.90;;;;;;6241375;28;20026;-75
2022/12/26 00:38:52;;;;;;;1.70;0.98;;;19.40;54.90;;;;;;6254634;28;20047;-75
2022/12/26 00:41:53;;;;;;;1.50;1.15;;;19.40;55.00;;;;;;6267568;28;20055;-75
2022/12/26 00:44:55;;;;;;;2.15;1.17;;;19.40;54.90;;;;;;6263567;28;20047;-75
2022/12/26 00:47:55;;;;;;;1.60;1.30;;;19.40;55.00;;;;;;6262216;28;20545;-76
2022/12/26 00:50:56;;;;;;;1.50;0.93;;;19.40;55.00;;;;;;6242086;28;20061;-76
2022/12/26 00:53:57;;;;;;;1.27;0.95;;;19.40;55.00;;;;;;6251811;28;20388;-76
2022/12/26 00:56:57;;;;;;;1.17;0.80;;;19.40;55.00;;;;;;6266336;28;20036;-76
2022/12/26 00:59:58;;;;;;;1.90;1.20;;;19.40;55.00;;;;;;6246858;28;20391;-75
2022/12/26 01:02:59;;;;;;;1.17;0.80;;;19.40;55.00;;;;;;6242458;28;20041;-75
2022/12/26 01:06:02;;;;;;;1.65;1.13;;;19.40;55.00;;;;;;6265283;28;20391;-76
2022/12/26 01:09:03;;;;;;;1.20;1.00;;;19.40;55.00;;;;;;6256925;28;20419;-76
2022/12/26 01:12:05;;;;;;;1.10;0.90;;;19.40;55.00;;;;;;6242171;28;20049;-75
2022/12/26 01:15:06;;;;;;;1.45;1.10;;;19.40;55.00;;;;;;6258657;28;20503;-76
2022/12/26 01:18:08;;;;;;;1.55;0.88;;;19.40;55.00;;;;;;6264679;28;20093;-75
2022/12/26 01:21:09;;;;;;;0.75;0.70;;;19.40;55.00;;;;;;6241807;28;20033;-76
2022/12/26 01:24:10;;;;;;;1.95;1.17;;;19.40;55.00;;;;;;6262276;28;20106;-76
2022/12/26 01:27:11;;;;;;;1.15;0.90;;;19.40;55.00;;;;;;6274249;28;20024;-75
2022/12/26 01:30:12;;;;;;;1.02;0.75;;;19.40;55.00;;;;;;6258562;28;20025;-75
2022/12/26 01:33:13;;;;;;;1.83;1.20;;;19.40;55.00;;;;;;6250840;28;20306;-75
2022/12/26 01:36:15;;;;;;;1.00;0.80;;;19.40;55.00;;;;;;6273285;28;20025;-75
2022/12/26 01:39:15;;;;;;;0.98;0.70;;;19.40;55.00;;;;;;6267187;28;20116;-76
2022/12/26 01:42:19;;;;;;;1.00;0.90;;;19.40;55.00;;;;;;6248602;28;20485;-75
2022/12/26 01:45:31;;;;;;;1.27;0.90;;;19.40;55.00;;;;;;6254540;28;20435;-76
2022/12/26 01:48:33;;;;;;;1.30;1.02;;;19.40;55.00;;;;;;6250056;28;20030;-75
2022/12/26 01:51:37;;;;;;;1.30;0.80;;;19.40;55.00;;;;;;6225024;28;20053;-75
2022/12/26 01:54:40;;;;;;;1.10;1.00;;;19.40;55.00;;;;;;6241187;28;20033;-76
2022/12/26 01:57:48;;;;;;;1.98;1.10;;;19.40;55.10;;;;;;6273311;28;20029;-76
2022/12/26 02:00:49;;;;;;;1.15;0.80;;;19.40;55.10;;;;;;6255844;28;20029;-75
2022/12/26 02:07:10;;;;;;;1.20;0.90;;;19.40;55.10;;;;;;6274847;28;20029;-75
2022/12/26 02:10:19;;;;;;;1.23;0.90;;;19.40;55.00;;;;;;6261940;28;20314;-76
2022/12/26 02:13:19;;;;;;;1.05;0.90;;;19.40;55.10;;;;;;6249367;28;20087;-76
2022/12/26 02:16:20;;;;;;;0.88;0.73;;;19.40;55.10;;;;;;6267429;28;20029;-75
2022/12/26 02:19:28;;;;;;;0.85;0.70;;;19.40;55.10;;;;;;6271416;28;20072;-76
2022/12/26 02:22:53;;;;;;;0.65;0.60;;;19.40;55.10;;;;;;6248253;28;20060;-75
2022/12/26 02:26:04;;;;;;;0.75;0.70;;;19.40;55.00;;;;;;6261511;28;20021;-76
2022/12/26 02:29:35;;;;;;;1.65;0.80;;;19.40;55.00;;;;;;6274360;28;20029;-75
2022/12/26 02:32:48;;;;;;;1.27;0.80;;;19.40;55.10;;;;;;6225201;28;20029;-76
2022/12/26 02:35:57;;;;;;;1.10;0.80;;;19.40;55.10;;;;;;6247565;28;20021;-75
2022/12/26 02:39:31;;;;;;;1.38;0.73;;;19.40;55.80;;;;;;6268768;28;20037;-75
2022/12/26 02:42:35;;;;;;;1.05;0.80;;;19.40;55.10;;;;;;6225229;28;20088;-75
2022/12/26 03:13:46;;;;;;;0.77;0.68;;;19.40;55.20;;;;;;6244253;28;20038;-76
2022/12/26 03:20:15;;;;;;;1.33;0.88;;;19.40;55.10;;;;;;6268277;28;20029;-75
2022/12/26 03:23:17;;;;;;;;;;;19.40;55.10;;;;;;6245164;28;20440;-76
2022/12/26 03:26:39;;;;;;;0.85;0.63;;;19.40;55.10;;;;;;6251831;28;19909;-75
2022/12/26 03:32:59;;;;;;;1.33;0.75;;;19.40;55.20;;;;;;6246735;28;20037;-75
2022/12/26 03:36:00;;;;;;;0.95;0.80;;;19.40;55.10;;;;;;6249025;28;20036;-76
2022/12/26 03:39:06;;;;;;;1.30;0.85;;;19.40;55.10;;;;;;6267404;28;20041;-75
2022/12/26 04:45:56;;;;;;;0.57;0.57;;;19.30;55.10;;;;;;6266266;28;20029;-75
2022/12/26 04:52:17;;;;;;;0.70;0.60;;;19.30;55.10;;;;;;6247954;28;20445;-76
2022/12/26 04:55:18;;;;;;;0.88;0.57;;;19.40;55.20;;;;;;6265549;28;20104;-75
2022/12/26 04:58:19;;;;;;;0.95;0.63;;;19.40;55.20;;;;;;6247610;28;20044;-75
2022/12/26 05:11:18;;;;;;;1.10;0.70;;;19.40;55.20;;;;;;6242031;28;20033;-76
2022/12/26 05:14:19;;;;;;;0.40;0.40;;;19.30;55.10;;;;;;6261323;28;20102;-75
2022/12/26 05:30:30;;;;;;;0.60;0.50;;;19.40;55.20;;;;;;6216026;28;20041;-75
2022/12/26 05:36:54;;;;;;;0.77;0.60;;;19.40;55.20;;;;;;6266166;28;20029;-75
2022/12/26 05:39:54;;;;;;;0.73;0.57;;;19.40;55.30;;;;;;6235795;28;20064;-75
2022/12/26 05:42:55;;;;;;;0.70;0.60;;;19.40;55.30;;;;;;6221716;28;20017;-75
2022/12/26 05:45:56;;;;;;;0.70;0.50;;;19.40;55.20;;;;;;6240070;28;20029;-74
2022/12/26 05:48:57;;;;;;;0.47;0.40;;;19.40;55.30;;;;;;6252203;28;20067;-75
2022/12/26 05:51:57;;;;;;;0.73;0.57;;;19.40;55.30;;;;;;6264767;28;20024;-76
2022/12/26 05:54:58;;;;;;;0.60;0.50;;;19.40;55.30;;;;;;6246234;28;20500;-76
2022/12/26 05:57:59;;;;;;;0.98;0.60;;;19.40;55.30;;;;;;6242344;28;20026;-75
2022/12/26 06:01:19;;;;;;;0.70;0.60;;;19.40;55.30;;;;;;6262963;28;20033;-75
2022/12/26 06:04:20;;;;;;;0.70;0.52;;;19.40;55.20;;;;;;6220125;28;20025;-75
2022/12/26 06:07:20;;;;;;;0.63;0.50;;;19.40;55.30;;;;;;6216020;28;20490;-75
2022/12/26 06:10:21;;;;;;;0.50;0.50;;;19.40;55.30;;;;;;6253449;28;20029;-76
2022/12/26 06:13:22;;;;;;;0.82;0.60;;;19.40;55.20;;;;;;6249297;28;20373;-76
2022/12/26 06:16:23;;;;;;;0.50;0.50;;;19.40;55.30;;;;;;6268740;28;20120;-75
2022/12/26 06:19:24;;;;;;;0.57;0.50;;;19.40;55.30;;;;;;6253571;28;20026;-75
2022/12/26 06:22:24;;;;;;;0.55;0.50;;;19.40;55.30;;;;;;6243790;28;20487;-75
2022/12/26 06:25:25;;;;;;;0.70;0.52;;;19.40;55.30;;;;;;6252244;28;20033;-75
2022/12/26 06:28:26;;;;;;;0.65;0.45;;;19.40;55.30;;;;;;6224028;28;20084;-75
2022/12/26 06:31:27;;;;;;;0.68;0.60;;;19.40;55.30;;;;;;6269058;28;20361;-75
2022/12/26 06:34:27;;;;;;;1.33;0.63;;;19.40;55.30;;;;;;6259019;28;20102;-75
2022/12/26 06:37:28;;;;;;;1.85;0.77;;;19.40;55.30;;;;;;6243570;28;20468;-76
2022/12/26 06:40:28;;;;;;;0.73;0.55;;;19.40;55.30;;;;;;6262899;28;20024;-75
2022/12/26 06:43:29;;;;;;;0.65;0.60;;;19.40;55.30;;;;;;6258699;28;20026;-75
2022/12/26 06:46:30;;;;;;;0.50;0.50;;;19.40;55.30;;;;;;6269942;28;20598;-75
2022/12/26 06:49:30;;;;;;;0.70;0.57;;;19.40;55.30;;;;;;6261617;28;20057;-75
2022/12/26 06:52:31;;;;;;;0.50;0.50;;;19.40;55.30;;;;;;6243533;28;20167;-75
2022/12/26 06:55:32;;;;;;;0.50;0.40;;;19.40;55.30;;;;;;6260384;28;20033;-75
2022/12/26 06:58:32;;;;;;;0.52;0.50;;;19.40;55.30;;;;;;6269370;28;20502;-75
2022/12/26 07:01:34;;;;;;;1.13;0.60;;;19.40;55.30;;;;;;6239988;28;20029;-75
2022/12/26 07:04:35;;;;;;;0.70;0.50;;;19.40;55.30;;;;;;6251413;28;20025;-75
2022/12/26 07:07:36;;;;;;;0.60;0.50;;;19.40;55.30;;;;;;6269322;28;20025;-76
2022/12/26 07:10:37;;;;;;;0.93;0.60;;;19.40;55.30;;;;;;6255403;28;20137;-76
2022/12/26 07:13:37;;;;;;;0.40;0.40;;;19.40;55.30;;;;;;6246448;28;20083;-75
2022/12/26 07:16:40;;;;;;;0.50;0.40;;;19.40;55.30;;;;;;6268408;28;20179;-75
2022/12/26 07:19:40;;;;;;;1.15;0.70;;;19.40;55.30;;;;;;6265125;28;20149;-76
2022/12/26 07:22:41;;;;;;;0.52;0.45;;;19.40;55.30;;;;;;6245002;28;20028;-76
2022/12/26 07:25:41;;;;;;;0.70;0.47;;;19.40;55.30;;;;;;6257039;28;20376;-75
2022/12/26 07:28:42;;;;;;;0.50;0.50;;;19.40;55.30;;;;;;6269904;28;20025;-75
2022/12/26 07:31:43;;;;;;;0.63;0.50;;;19.40;55.30;;;;;;6248736;28;20029;-75
2022/12/26 07:34:43;;;;;;;0.50;0.50;;;19.40;55.30;;;;;;6248448;28;20086;-75
2022/12/26 07:37:44;;;;;;;0.60;0.50;;;19.30;55.30;;;;;;6269222;28;20119;-75
2022/12/26 07:40:45;;;;;;;0.90;0.60;;;19.40;55.30;;;;;;6259851;28;20543;-75
2022/12/26 07:43:45;;;;;;;0.77;0.60;;;19.40;55.30;;;;;;6256830;28;20115;-76
2022/12/26 07:46:46;;;;;;;0.45;0.45;;;19.40;55.40;;;;;;6250934;28;20210;-75
2022/12/26 07:49:46;;;;;;;0.40;0.40;;;19.30;55.30;;;;;;6246582;28;20048;-75
2022/12/26 07:52:47;;;;;;;0.40;0.40;;;19.40;55.30;;;;;;6270253;28;20087;-75
2022/12/26 07:55:48;;;;;;;0.70;0.50;;;19.40;55.30;;;;;;6258681;28;20079;-75
2022/12/26 07:58:50;;;;;;;0.60;0.43;;;19.40;55.30;;;;;;6245987;28;20037;-75
2022/12/26 08:01:50;;;;;;;0.80;0.55;;;19.40;55.40;;;;;;6263383;28;20071;-76
2022/12/26 08:04:51;;;;;;;0.43;0.40;;;19.40;55.30;;;;;;6270123;28;20029;-75
2022/12/26 08:07:51;;;;;;;0.63;0.60;;;19.40;55.30;;;;;;6270106;28;20467;-75
2022/12/26 08:11:00;;;;;;;0.82;0.50;;;19.40;55.30;;;;;;6260896;28;20021;-76
2022/12/26 08:14:01;;;;;;;0.50;0.50;;;19.40;55.30;;;;;;6244372;28;20029;-75
2022/12/26 08:17:01;;;;;;;0.35;0.30;;;19.30;55.30;;;;;;6260864;28;20499;-76
2022/12/26 08:20:02;;;;;;;0.43;0.43;;;19.40;55.30;;;;;;6268076;28;20033;-75
2022/12/26 08:23:03;;;;;;;0.40;0.40;;;19.30;55.30;;;;;;6245683;28;20080;-75
2022/12/26 08:26:09;;;;;;;0.25;0.25;;;19.40;55.40;;;;;;6249972;28;20071;-76
2022/12/26 08:29:10;;;;;;;0.80;0.40;;;19.40;55.40;;;;;;6264875;28;20783;-75
2022/12/26 08:32:11;;;;;;;0.50;0.50;;;19.40;55.30;;;;;;6253367;28;20033;-75
2022/12/26 08:35:11;;;;;;;0.70;0.40;;;19.40;55.30;;;;;;6243822;28;20562;-75
2022/12/26 08:38:12;;;;;;;0.60;0.50;;;19.40;55.40;;;;;;6267908;28;20040;-76
2022/12/26 08:41:13;;;;;;;0.30;0.30;;;19.40;55.30;;;;;;6260309;28;20056;-75
2022/12/26 08:44:16;;;;;;;0.57;0.50;;;19.30;55.30;;;;;;6260156;28;20025;-75
2022/12/26 08:47:17;;;;;;;0.40;0.40;;;19.40;55.30;;;;;;6253593;28;20029;-76
2022/12/26 08:50:17;;;;;;;0.40;0.40;;;19.30;55.30;;;;;;6242910;28;20127;-75
2022/12/26 08:53:18;;;;;;;0.55;0.55;;;19.40;55.40;;;;;;6267007;28;20108;-76
2022/12/26 08:56:23;;;;;;;0.30;0.30;;;19.40;55.40;;;;;;6261735;28;20026;-76
2022/12/26 08:59:24;;;;;;;0.50;0.40;;;19.30;55.30;;;;;;6243104;28;20395;-75
2022/12/26 09:02:24;;;;;;;0.65;0.43;;;19.40;55.40;;;;;;6257138;28;20025;-75
2022/12/26 09:05:25;;;;;;;0.63;0.50;;;19.40;55.40;;;;;;6267062;28;20431;-76
2022/12/26 09:08:29;;;;;;;0.40;0.40;;;19.40;55.40;;;;;;6245958;28;20059;-75
2022/12/26 09:11:30;;;;;;;0.60;0.50;;;19.40;55.40;;;;;;6248832;28;20032;-75
2022/12/26 09:14:31;;;;;;;1.20;0.60;;;19.40;55.40;;;;;;6268458;28;20304;-75
2022/12/26 09:17:31;;;;;;;0.40;0.40;;;19.30;55.40;;;;;;6253940;28;20037;-76
2022/12/26 09:20:32;;;;;;;0.65;0.50;;;19.40;55.40;;;;;;6243026;28;20025;-75
2022/12/26 09:23:34;;;;;;;0.60;0.40;;;19.40;55.40;;;;;;6262908;28;20028;-75
2022/12/26 09:26:35;;;;;;;0.40;0.40;;;19.40;55.40;;;;;;6263241;28;20473;-75
2022/12/26 09:29:39;;;;;;;0.47;0.47;;;19.40;55.40;;;;;;6233637;28;20048;-75
2022/12/26 09:32:40;;;;;;;0.60;0.50;;;19.40;55.40;;;;;;6244700;28;20065;-76
2022/12/26 09:35:41;;;;;;;0.35;0.35;;;19.40;55.40;;;;;;6262680;28;20051;-76
2022/12/26 09:38:43;;;;;;;0.40;0.40;;;19.30;55.30;;;;;;6248161;28;20172;-75
2022/12/26 09:42:22;;;;;;;2.65;0.38;;;19.30;55.30;;;;;;6245786;28;20052;-75
2022/12/26 09:45:42;;;;;;;0.43;0.30;;;19.40;55.40;;;;;;6222342;28;20029;-75
2022/12/26 09:49:05;;;;;;;0.40;0.30;;;19.40;55.40;;;;;;6247215;28;20183;-75
2022/12/26 09:52:13;;;;;;;0.47;0.40;;;19.30;55.30;;;;;;6242385;28;20491;-76
2022/12/26 09:55:41;;;;;;;0.47;0.40;;;19.40;55.40;;;;;;6265956;28;20029;-75
2022/12/26 09:58:48;;;;;;;0.40;0.40;;;19.40;55.40;;;;;;6245650;28;20276;-76
2022/12/26 10:01:49;;;;;;;0.40;0.40;;;19.30;55.40;;;;;;6270056;28;20044;-75
2022/12/26 10:04:50;;;;;;;0.80;0.40;;;19.40;55.40;;;;;;6253354;28;20025;-76
2022/12/26 10:08:12;;;;;;;0.32;0.32;;;19.40;55.40;;;;;;6259241;28;20025;-75
2022/12/26 10:11:43;;;;;;;0.43;0.40;;;19.40;55.50;;;;;;6242617;28;20029;-74
2022/12/26 10:14:52;;;;;;;0.40;0.40;;;19.40;55.40;;;;;;6236603;28;20117;-75
2022/12/26 10:18:07;;;;;;;0.45;0.40;;;19.40;55.50;;;;;;6202603;28;20124;-76
2022/12/26 10:21:08;;;;;;;0.30;0.30;;;19.40;55.50;;;;;;6219555;28;20030;-75
2022/12/26 10:24:20;;;;;;;0.40;0.32;;;19.40;55.50;;;;;;6224996;28;20369;-75
2022/12/26 10:27:23;;;;;;;0.90;0.30;;;19.30;55.50;;;;;;6215379;28;20625;-75
2022/12/26 10:30:32;;;;;;;0.65;0.40;;;19.40;55.50;;;;;;6243862;28;22285;-75
2022/12/26 10:34:14;;;;;;;1.38;0.40;;;19.40;55.50;;;;;;6234844;28;20141;-76
2022/12/26 10:37:26;;;;;;;0.80;0.45;;;19.40;55.40;;;;;;6241980;28;20598;-76
2022/12/26 10:40:35;;;;;;;0.30;0.28;;;19.40;55.40;;;;;;6220908;28;20040;-75
2022/12/26 10:43:41;;;;;;;0.38;0.38;;;19.40;55.40;;;;;;6233581;28;20033;-75
2022/12/26 10:47:00;;;;;;;0.32;0.30;;;19.40;55.40;;;;;;6244583;28;20029;-76
2022/12/26 10:50:01;;;;;;;0.73;0.50;;;19.40;55.40;;;;;;6249166;28;20053;-76
2022/12/26 10:53:06;;;;;;;0.65;0.40;;;19.40;55.40;;;;;;6263711;28;20091;-75
2022/12/26 10:56:07;;;;;;;0.77;0.50;;;19.40;55.40;;;;;;6251418;28;20025;-75
2022/12/26 10:59:14;;;;;;;1.02;0.38;;;19.40;55.40;;;;;;6257272;28;20639;-75
2022/12/26 11:02:23;;;;;;;0.32;0.32;;;19.40;55.50;;;;;;6260983;28;20029;-76
2022/12/26 11:05:23;;;;;;;0.75;0.30;;;19.40;55.50;;;;;;6248602;28;20021;-76
2022/12/26 11:08:48;;;;;;;0.50;0.47;;;19.40;55.50;;;;;;6266009;28;20450;-75
2022/12/26 11:11:51;;;;;;;0.55;0.30;;;19.40;55.50;;;;;;6236588;28;20037;-75
2022/12/26 11:15:26;;;;;;;0.30;0.30;;;19.40;55.50;;;;;;6254187;28;20021;-75
2022/12/26 11:18:32;;;;;;;0.52;0.32;;;19.40;55.60;;;;;;6256819;28;20038;-76
2022/12/26 11:21:33;;;;;;;0.30;0.30;;;19.40;55.50;;;;;;6245996;28;20061;-75
2022/12/26 11:24:34;;;;;;;0.90;0.30;;;19.40;55.50;;;;;;6257829;28;20024;-76
2022/12/26 11:27:41;;;;;;;0.47;0.40;;;19.30;55.50;;;;;;6270523;28;20111;-75
2022/12/26 11:30:46;;;;;;;1.52;0.30;;;19.30;55.60;;;;;;6250819;28;20029;-76
2022/12/26 11:33:47;;;;;;;0.50;0.40;;;19.40;55.60;;;;;;6249759;28;20024;-74
2022/12/26 11:36:49;;;;;;;0.50;0.40;;;19.40;55.60;;;;;;6271799;28;20028;-75
2022/12/26 11:39:51;;;;;;;1.05;0.30;;;19.40;55.60;;;;;;6259183;28;20491;-75
2022/12/26 11:42:55;;;;;;;0.40;0.35;;;19.40;55.60;;;;;;6251671;28;20529;-75
2022/12/26 11:45:56;;;;;;;1.10;0.30;;;19.40;55.60;;;;;;6250604;28;20075;-75
2022/12/26 11:48:57;;;;;;;0.70;0.32;;;19.40;55.60;;;;;;6261285;28;20499;-76
2022/12/26 11:51:59;;;;;;;0.52;0.40;;;19.40;56.30;;;;;;6271221;28;20029;-75
2022/12/26 11:55:00;;;;;;;0.57;0.40;;;19.40;55.60;;;;;;6259246;28;20055;-75
2022/12/26 11:58:07;;;;;;;0.45;0.30;;;19.40;55.60;;;;;;6245348;28;20045;-75
2022/12/26 12:01:14;;;;;;;0.85;0.30;;;19.30;55.60;;;;;;6265245;28;20025;-76
2022/12/26 12:04:16;;;;;;;0.40;0.30;;;19.30;55.50;;;;;;6267059;28;20060;-75
2022/12/26 12:07:28;;;;;;;0.57;0.30;;;19.40;55.60;;;;;;6246105;28;20103;-76
2022/12/26 12:10:46;;;;;;;0.90;0.30;;;19.30;55.60;;;;;;6254444;28;20459;-76
2022/12/26 12:14:14;;;;;;;0.20;0.20;;;19.40;55.60;;;;;;6246046;28;20504;-75
2022/12/26 12:17:37;;;;;;;1.15;0.50;;;19.40;55.60;;;;;;6219946;28;20041;-76
2022/12/26 12:20:50;;;;;;;1.40;0.40;;;19.40;55.60;;;;;;6245125;28;20029;-75
2022/12/26 12:24:05;;;;;;;0.32;0.30;;;19.40;55.60;;;;;;6269091;28;20032;-76
2022/12/26 12:27:37;;;;;;;0.43;0.30;;;19.40;55.60;;;;;;6221213;28;20564;-76
2022/12/26 12:30:56;;;;;;;0.30;0.30;;;19.40;55.60;;;;;;6243753;28;20029;-75
2022/12/26 12:34:07;;;;;;;0.30;0.30;;;19.30;55.50;;;;;;6269405;28;20055;-75
2022/12/26 12:37:30;;;;;;;0.45;0.38;;;19.40;55.60;;;;;;6267887;28;20025;-75
2022/12/26 12:40:43;;;;;;;0.30;0.30;;;19.40;55.60;;;;;;6259711;28;20506;-76
2022/12/26 12:44:08;;;;;;;0.20;0.20;;;19.40;55.60;;;;;;6257636;28;20082;-75
2022/12/26 12:47:24;;;;;;;0.65;0.40;;;19.40;55.60;;;;;;6247621;28;20091;-75
2022/12/26 12:50:33;;;;;;;0.20;0.20;;;19.30;55.60;;;;;;6251026;28;20084;-75
2022/12/26 12:53:46;;;;;;;0.38;0.30;;;19.40;55.60;;;;;;6269855;28;20417;-76
2022/12/26 12:57:29;;;;;;;1.40;0.50;;;19.40;55.60;;;;;;6248952;28;20041;-75
2022/12/26 13:00:40;;;;;;;0.30;0.30;;;19.40;55.60;;;;;;6266026;28;20451;-75
2022/12/26 13:03:46;;;;;;;0.43;0.40;;;19.30;55.60;;;;;;6269645;28;20055;-76
2022/12/26 13:06:54;;;;;;;1.02;0.50;;;19.40;55.60;;;;;;6253256;28;20387;-75
2022/12/26 13:10:03;;;;;;;0.20;0.20;;;19.40;55.60;;;;;;6244048;28;20075;-75
2022/12/26 13:13:32;;;;;;;1.48;0.38;;;19.40;55.60;;;;;;6217187;28;20423;-75
2022/12/26 13:16:42;;;;;;;0.65;0.40;;;19.40;55.60;;;;;;6253255;28;20484;-75
2022/12/26 13:19:53;;;;;;;0.22;0.22;;;19.40;55.60;;;;;;6269315;28;20029;-75
2022/12/26 13:26:27;;;;;;;0.30;0.30;;;19.30;55.60;;;;;;6259723;28;20468;-76
2022/12/26 13:29:30;;;;;;;0.40;0.35;;;19.40;55.60;;;;;;6244984;28;20025;-75
2022/12/26 13:32:32;;;;;;;0.30;0.30;;;19.30;55.60;;;;;;6262486;28;20029;-75
2022/12/26 13:35:56;;;;;;;0.35;0.35;;;19.40;55.60;;;;;;6267282;28;20105;-75
2022/12/26 13:38:56;;;;;;;0.30;0.30;;;19.40;55.60;;;;;;6244448;28;20079;-75
2022/12/26 13:45:36;;;;;;;0.30;0.30;;;19.40;55.70;;;;;;6219879;28;20041;-76
2022/12/26 13:48:37;;;;;;;0.30;0.30;;;19.30;55.60;;;;;;6219471;28;20080;-75
2022/12/26 13:51:44;;;;;;;0.30;0.30;;;19.30;55.60;;;;;;6236884;28;20056;-75
2022/12/26 13:54:51;;;;;;;0.28;0.20;;;19.40;55.60;;;;;;6228080;28;20384;-75
2022/12/26 13:58:18;;;;;;;0.50;0.43;;;19.40;55.70;;;;;;6260086;28;20028;-75
2022/12/26 14:01:30;;;;;;;0.30;0.30;;;19.40;55.70;;;;;;6251836;28;20025;-76
2022/12/26 14:04:43;;;;;;;0.20;0.20;;;19.40;55.70;;;;;;6250269;28;20107;-75
2022/12/26 14:08:02;;;;;;;0.35;0.35;;;19.40;55.80;;;;;;6259206;28;20017;-75
2022/12/26 14:11:27;;;;;;;0.47;0.47;;;19.40;55.70;;;;;;6223783;28;20021;-75
2022/12/26 14:14:43;;;;;;;0.30;0.30;;;19.40;55.70;;;;;;6232971;28;20025;-76
2022/12/26 14:18:08;;;;;;;0.52;0.40;;;19.40;55.70;;;;;;6252891;28;20480;-76
2022/12/26 14:21:32;;;;;;;0.30;0.30;;;19.30;55.60;;;;;;6260438;28;20476;-75
2022/12/26 14:24:53;;;;;;;0.30;0.30;;;19.40;55.70;;;;;;6235714;28;20041;-76
2022/12/26 14:28:09;;;;;;;0.77;0.50;;;19.30;55.60;;;;;;6232031;28;20034;-75
2022/12/26 14:31:38;;;;;;;0.20;0.20;;;19.40;55.70;;;;;;6256031;28;20025;-75
2022/12/26 14:35:15;;;;;;;0.60;0.40;;;19.40;55.60;;;;;;6225801;28;20130;-76
2022/12/26 14:38:24;;;;;;;0.40;0.40;;;19.40;55.60;;;;;;6255019;28;20033;-75
2022/12/26 14:44:45;;;;;;;0.40;0.38;;;19.40;55.60;;;;;;6266428;28;20053;-75
2022/12/26 14:47:47;;;;;;;4.57;0.45;;;19.40;55.60;;;;;;6259192;28;20096;-76
2022/12/26 14:51:02;;;;;;;4.03;0.50;;;19.40;55.60;;;;;;6255753;28;20053;-75
2022/12/26 14:54:36;;;;;;;0.70;0.40;;;19.40;55.60;;;;;;6251013;28;20027;-75
2022/12/26 14:57:46;;;;;;;5.07;0.35;;;19.40;55.70;;;;;;6264889;28;20033;-76
2022/12/26 15:00:47;;;;;;;3.60;0.40;;;19.40;55.60;;;;;;6270739;28;20031;-75
2022/12/26 15:04:02;;;;;;;3.60;0.45;;;19.40;55.70;;;;;;6252911;28;20496;-76
2022/12/26 15:07:37;;;;;;;5.80;0.75;;;19.40;55.70;;;;;;6262669;28;20097;-76
2022/12/26 15:11:03;;;;;;;2.67;0.60;;;19.40;55.70;;;;;;6233399;28;20045;-76
2022/12/26 15:14:22;;;;;;;1.30;0.50;;;19.40;55.70;;;;;;6263280;28;20637;-76
2022/12/26 15:18:00;;;;;;;6.65;0.60;;;19.40;55.70;;;;;;6267047;28;20032;-75
2022/12/26 15:21:13;;;;;;;4.13;0.50;;;19.40;55.70;;;;;;6248454;28;20025;-75
2022/12/26 15:24:37;;;;;;;4.30;0.85;;;19.40;55.80;;;;;;6257854;28;20471;-75
2022/12/26 15:27:56;;;;;;;1.35;0.50;;;19.40;55.70;;;;;;6242975;28;20013;-76
2022/12/26 15:31:09;;;;;;;4.05;0.60;;;19.40;55.70;;;;;;6268918;28;20249;-76
2022/12/26 15:34:28;;;;;;;2.97;0.50;;;19.40;55.70;;;;;;6253365;28;20022;-76
2022/12/26 15:37:54;;;;;;;7.53;0.60;;;19.30;55.60;;;;;;6261327;28;20124;-75
2022/12/26 15:41:13;;;;;;;4.07;0.70;;;19.40;55.70;;;;;;6241235;28;20495;-75
2022/12/26 15:44:45;;;;;;;5.82;0.68;;;19.40;55.70;;;;;;6225004;28;20022;-75
2022/12/26 15:48:12;;;;;;;6.10;0.68;;;19.30;55.60;;;;;;6251114;28;20132;-73
2022/12/26 15:51:48;;;;;;;6.07;0.50;;;19.40;55.80;;;;;;6231373;28;20053;-76
2022/12/26 15:54:55;;;;;;;;;;;19.30;55.70;;;;;;6263214;28;20037;-75
2022/12/26 15:58:18;;;;;;;3.28;0.73;;;19.40;55.80;;;;;;6247740;28;20316;-75
2022/12/26 16:01:43;;;;;;;2.25;0.55;;;19.40;55.80;;;;;;6249014;28;20479;-76
2022/12/26 16:04:51;;;;;;;11.82;1.50;;;19.40;55.80;;;;;;6252855;28;20021;-75
2022/12/26 16:08:13;;;;;;;9.27;1.65;;;19.30;55.70;;;;;;6225018;28;20475;-75
2022/12/26 16:11:17;;;;;;;9.73;1.95;;;19.30;55.70;;;;;;6236948;28;20025;-76
2022/12/26 16:14:29;;;;;;;12.60;2.28;;;19.40;55.80;;;;;;6247824;28;20056;-76
2022/12/26 16:17:30;;;;;;;11.45;2.30;;;19.40;55.80;;;;;;6238448;28;20050;-76
2022/12/26 16:23:54;;;;;;;11.20;3.03;;;19.40;55.80;;;;;;6230607;28;20407;-76
2022/12/26 16:27:00;;;;;;;17.17;4.47;;;19.30;55.70;;;;;;6235391;28;20100;-76
2022/12/26 16:30:03;;;;;;;24.70;5.75;;;19.40;55.80;;;;;;6253555;28;20483;-76
2022/12/26 16:33:05;;;;;;;20.48;6.80;;;19.30;55.70;;;;;;6258089;28;20391;-76
2022/12/26 16:36:08;;;;;;;22.80;6.40;;;19.40;55.80;;;;;;6245909;28;20025;-76
2022/12/26 16:39:10;;;;;;;20.25;6.32;;;19.40;55.80;;;;;;6236142;28;20032;-76
2022/12/26 16:42:30;;;;;;;19.27;7.05;;;19.40;55.80;;;;;;6217036;28;20057;-76
2022/12/26 16:45:37;;;;;;;27.27;7.10;;;19.40;55.80;;;;;;6232046;28;20025;-76
2022/12/26 16:48:40;;;;;;;23.98;7.28;;;19.40;55.80;;;;;;6244370;28;20045;-76
2022/12/26 16:51:46;;;;;;;24.13;7.78;;;19.40;55.80;;;;;;6267647;28;20577;-76
2022/12/26 16:54:46;;;;;;;26.77;8.55;;;19.40;55.80;;;;;;6266944;28;20040;-77
2022/12/26 16:57:49;;;;;;;24.10;9.88;;;19.40;55.80;;;;;;6267272;28;20029;-76
2022/12/26 17:01:09;;;;;;;32.47;9.95;;;19.30;55.70;;;;;;6248654;28;20799;-76
2022/12/26 17:04:23;;;;;;;36.63;10.20;;;19.40;55.80;;;;;;6259610;28;21149;-76
2022/12/26 17:07:25;;;;;;;25.10;9.73;;;19.40;55.80;;;;;;6248286;28;20017;-77
2022/12/26 17:10:32;;;;;;;32.03;12.45;;;19.40;55.80;;;;;;6253537;28;20032;-76
2022/12/26 17:13:32;;;;;;;27.40;10.63;;;19.30;55.70;;;;;;6256397;28;20094;-75
2022/12/26 17:16:34;;;;;;;27.20;10.68;;;19.40;55.80;;;;;;6245339;28;20022;-76
2022/12/26 17:19:36;;;;;;;25.13;10.27;;;19.40;55.80;;;;;;6257419;28;20487;-75
2022/12/26 17:22:36;;;;;;;27.23;10.75;;;19.40;55.80;;;;;;6242475;28;20121;-76
2022/12/26 17:25:37;;;;;;;29.98;11.80;;;19.30;55.80;;;;;;6251622;28;20112;-76
2022/12/26 17:28:38;;;;;;;28.90;10.40;;;19.40;55.80;;;;;;6253889;28;20090;-75
2022/12/26 17:31:43;;;;;;;25.90;11.43;;;19.40;55.80;;;;;;6246634;28;20017;-76
2022/12/26 17:34:44;;;;;;;28.70;11.35;;;19.40;55.80;;;;;;6261790;28;20024;-76
2022/12/26 17:37:48;;;;;;;28.67;11.13;;;19.30;55.80;;;;;;6247017;28;20029;-76
2022/12/26 17:40:57;;;;;;;29.58;10.80;;;19.30;55.80;;;;;;6252164;28;20034;-76
2022/12/26 17:43:57;;;;;;;23.90;10.88;;;19.30;55.80;;;;;;6255622;28;20452;-76
2022/12/26 17:47:21;;;;;;;33.95;11.52;;;19.40;55.80;;;;;;6246470;28;20029;-75
2022/12/26 17:50:24;;;;;;;24.42;10.23;;;19.40;55.80;;;;;;6253385;28;20056;-74
2022/12/26 17:53:53;;;;;;;28.48;11.93;;;19.40;55.80;;;;;;6232651;28;20021;-75
2022/12/26 17:56:53;;;;;;;26.58;10.52;;;19.30;55.80;;;;;;6254247;28;20153;-74
2022/12/26 17:59:55;;;;;;;25.15;10.93;;;19.30;55.80;;;;;;6222344;28;20105;-74
2022/12/26 18:02:55;;;;;;;22.75;10.65;;;19.40;55.80;;;;;;6243923;28;20033;-75
2022/12/26 18:05:56;;;;;;;25.10;9.52;;;19.40;55.80;;;;;;6246811;28;20503;-74
2022/12/26 18:08:57;;;;;;;24.60;9.73;;;19.40;55.80;;;;;;6246282;28;20104;-75
2022/12/26 18:11:57;;;;;;;22.20;10.57;;;19.40;55.80;;;;;;6231943;28;20488;-74
2022/12/26 18:14:58;;;;;;;20.98;9.48;;;19.30;55.80;;;;;;6224446;28;20025;-75
2022/12/26 18:17:58;;;;;;;20.70;9.60;;;19.40;55.80;;;;;;6273756;28;20112;-75
2022/12/26 18:21:00;;;;;;;22.73;10.10;;;19.30;55.80;;;;;;6263799;28;20357;-74
2022/12/26 18:24:00;;;;;;;21.65;10.73;;;19.40;55.80;;;;;;6248913;28;20029;-74
2022/12/26 18:27:01;;;;;;;21.38;9.70;;;19.40;56.60;;;;;;6264740;28;20032;-74
2022/12/26 18:30:02;;;;;;;19.30;8.98;;;19.40;55.80;;;;;;6270617;28;20056;-74
2022/12/26 18:33:03;;;;;;;21.98;9.45;;;19.40;55.80;;;;;;6249818;28;20028;-76
2022/12/26 18:36:04;;;;;;;20.05;9.45;;;19.40;55.80;;;;;;6254327;28;20025;-75
2022/12/26 18:39:04;;;;;;;16.50;9.10;;;19.40;55.80;;;;;;6273001;28;20112;-74